createdAt,value
2022-08-06T00:00:06.880Z,20.85
2022-08-06T00:00:51.330Z,20.82
2022-08-06T00:01:51.381Z,20.88
2022-08-06T00:02:51.335Z,20.87
2022-08-06T00:03:51.342Z,20.85
2022-08-06T00:04:51.341Z,20.84
2022-08-06T00:05:52.161Z,20.88
2022-08-06T00:06:51.349Z,20.77
2022-08-06T00:07:51.350Z,20.77
2022-08-06T00:08:52.243Z,20.73
2022-08-06T00:09:57.006Z,20.67
2022-08-06T00:10:51.352Z,20.61
2022-08-06T00:11:59.453Z,20.58
2022-08-06T00:12:51.358Z,20.55
2022-08-06T00:13:51.359Z,20.59
2022-08-06T00:14:51.360Z,20.57
2022-08-06T00:16:09.079Z,20.62
2022-08-06T00:16:54.324Z,20.51
2022-08-06T00:17:51.366Z,20.51
2022-08-06T00:18:51.369Z,20.51
2022-08-06T00:19:58.294Z,20.58
2022-08-06T00:20:51.373Z,20.55
2022-08-06T00:21:51.374Z,20.55
2022-08-06T00:22:51.375Z,20.47
2022-08-06T00:23:55.053Z,20.39
2022-08-06T00:24:51.382Z,20.35
2022-08-06T00:25:53.022Z,20.36
2022-08-06T00:27:04.967Z,20.29
2022-08-06T00:27:52.287Z,20.29
2022-08-06T00:28:51.389Z,20.32
2022-08-06T00:29:51.635Z,20.33
2022-08-06T00:30:51.391Z,20.21
2022-08-06T00:31:51.395Z,20.17
2022-08-06T00:32:52.709Z,20.13
2022-08-06T00:33:57.301Z,20.18
2022-08-06T00:34:51.403Z,20.23
2022-08-06T00:35:51.399Z,20.28
2022-08-06T00:36:51.403Z,20.28
2022-08-06T00:37:57.639Z,20.16
2022-08-06T00:38:51.409Z,20.13
2022-08-06T00:39:51.485Z,20.02
2022-08-06T00:40:58.616Z,20.08
2022-08-06T00:41:51.417Z,20.08
2022-08-06T00:42:51.414Z,20.16
2022-08-06T00:43:51.417Z,20.05
2022-08-06T00:44:51.416Z,20.13
2022-08-06T00:45:51.420Z,19.99
2022-08-06T00:46:51.417Z,19.92
2022-08-06T00:48:02.995Z,19.95
2022-08-06T00:48:54.089Z,19.95
2022-08-06T00:49:51.423Z,19.92
2022-08-06T00:50:51.428Z,19.98
2022-08-06T00:51:52.359Z,19.96
2022-08-06T00:52:51.429Z,19.92
2022-08-06T00:53:54.909Z,19.91
2022-08-06T00:54:51.431Z,19.84
2022-08-06T00:55:59.780Z,19.91
2022-08-06T00:56:51.437Z,19.88
2022-08-06T00:57:51.438Z,19.95
2022-08-06T00:58:51.444Z,19.87
2022-08-06T00:59:51.991Z,19.86
2022-08-06T01:00:51.775Z,19.84
2022-08-06T01:01:51.698Z,19.91
2022-08-06T01:02:51.515Z,19.95
2022-08-06T01:03:52.654Z,19.92
2022-08-06T01:04:51.452Z,19.94
2022-08-06T01:06:53.181Z,19.92
2022-08-06T01:06:57.450Z,19.92
2022-08-06T01:07:52.771Z,19.86
2022-08-06T01:08:51.454Z,19.73
2022-08-06T01:09:57.887Z,19.86
2022-08-06T01:10:51.972Z,19.74
2022-08-06T01:11:51.464Z,19.76
2022-08-06T01:12:51.467Z,19.71
2022-08-06T01:14:03.733Z,19.71
2022-08-06T01:15:02.483Z,19.77
2022-08-06T01:16:08.568Z,19.74
2022-08-06T01:16:51.470Z,19.80
2022-08-06T01:17:56.161Z,19.83
2022-08-06T01:18:52.704Z,19.76
2022-08-06T01:21:21.822Z,19.81
2022-08-06T01:21:57.218Z,19.81
2022-08-06T01:22:29.867Z,19.74
2022-08-06T01:22:51.696Z,19.68
2022-08-06T01:23:51.483Z,19.68
2022-08-06T01:24:51.486Z,19.48
2022-08-06T01:25:51.483Z,19.59
2022-08-06T01:26:54.308Z,19.63
2022-08-06T01:27:51.492Z,19.50
2022-08-06T01:28:51.938Z,19.37
2022-08-06T01:29:51.494Z,19.43
2022-08-06T01:30:51.495Z,19.50
2022-08-06T01:31:52.265Z,19.56
2022-08-06T01:32:51.495Z,19.51
2022-08-06T01:33:51.498Z,19.43
2022-08-06T01:34:53.340Z,19.40
2022-08-06T01:35:54.831Z,19.39
2022-08-06T01:36:51.505Z,19.44
2022-08-06T01:37:51.503Z,19.50
2022-08-06T01:38:59.304Z,19.44
2022-08-06T01:39:53.426Z,19.55
2022-08-06T01:40:52.181Z,19.44
2022-08-06T01:41:54.949Z,19.40
2022-08-06T01:42:54.269Z,19.41
2022-08-06T01:44:05.889Z,19.40
2022-08-06T01:44:51.517Z,19.37
2022-08-06T01:45:54.802Z,19.31
2022-08-06T01:46:51.520Z,19.22
2022-08-06T01:47:52.272Z,19.28
2022-08-06T01:48:51.525Z,19.22
2022-08-06T01:50:00.184Z,19.23
2022-08-06T01:50:51.524Z,19.37
2022-08-06T01:52:15.265Z,19.29
2022-08-06T01:52:59.421Z,19.32
2022-08-06T01:54:06.917Z,19.39
2022-08-06T01:54:52.536Z,19.26
2022-08-06T01:55:58.531Z,19.25
2022-08-06T01:56:56.911Z,19.29
2022-08-06T01:58:07.576Z,19.21
2022-08-06T01:58:51.537Z,19.22
2022-08-06T01:59:51.544Z,19.19
2022-08-06T02:00:51.667Z,19.16
2022-08-06T02:01:54.520Z,19.16
2022-08-06T02:02:51.543Z,19.16
2022-08-06T02:03:58.543Z,19.18
2022-08-06T02:04:52.746Z,19.18
2022-08-06T02:05:53.364Z,19.21
2022-08-06T02:06:51.545Z,18.98
2022-08-06T02:08:33.881Z,19.00
2022-08-06T02:08:51.553Z,19.11
2022-08-06T02:09:51.554Z,19.07
2022-08-06T02:10:51.652Z,19.02
2022-08-06T02:12:03.809Z,18.98
2022-08-06T02:12:51.555Z,18.99
2022-08-06T02:13:51.561Z,18.98
2022-08-06T02:14:51.561Z,18.94
2022-08-06T02:15:58.765Z,19.02
2022-08-06T02:16:51.563Z,19.00
2022-08-06T02:18:04.025Z,18.99
2022-08-06T02:18:51.568Z,19.00
2022-08-06T02:20:11.306Z,18.94
2022-08-06T02:20:53.021Z,18.94
2022-08-06T02:21:53.112Z,18.95
2022-08-06T02:22:51.572Z,18.90
2022-08-06T02:23:51.573Z,18.81
2022-08-06T02:24:51.574Z,18.84
2022-08-06T02:25:52.022Z,18.73
2022-08-06T02:26:51.583Z,18.85
2022-08-06T02:27:53.414Z,18.84
2022-08-06T02:28:51.584Z,18.82
2022-08-06T02:30:06.064Z,18.85
2022-08-06T02:30:51.584Z,18.69
2022-08-06T02:31:51.968Z,18.75
2022-08-06T02:32:51.584Z,18.76
2022-08-06T02:34:02.578Z,18.80
2022-08-06T02:34:51.587Z,18.65
2022-08-06T02:35:51.844Z,18.69
2022-08-06T02:36:51.592Z,18.62
2022-08-06T02:38:02.278Z,18.65
2022-08-06T02:38:52.594Z,18.65
2022-08-06T02:39:52.671Z,18.72
2022-08-06T02:40:51.599Z,18.60
2022-08-06T02:41:55.307Z,18.57
2022-08-06T02:42:51.606Z,18.70
2022-08-06T02:43:51.603Z,18.54
2022-08-06T02:44:51.601Z,18.44
2022-08-06T02:45:58.318Z,18.52
2022-08-06T02:46:51.606Z,18.55
2022-08-06T02:48:00.703Z,18.65
2022-08-06T02:48:51.619Z,18.60
2022-08-06T02:49:57.838Z,18.58
2022-08-06T02:50:51.610Z,18.57
2022-08-06T02:52:12.068Z,18.60
2022-08-06T02:52:57.612Z,18.55
2022-08-06T02:54:04.424Z,18.62
2022-08-06T02:54:51.619Z,18.63
2022-08-06T02:55:51.620Z,18.63
2022-08-06T02:56:51.618Z,18.55
2022-08-06T02:57:52.112Z,18.63
2022-08-06T02:58:58.425Z,18.63
2022-08-06T02:59:55.233Z,18.52
2022-08-06T03:00:52.587Z,18.60
2022-08-06T03:01:51.737Z,18.62
2022-08-06T03:02:51.633Z,18.58
2022-08-06T03:03:54.735Z,18.50
2022-08-06T03:04:56.679Z,18.57
2022-08-06T03:05:54.975Z,18.54
2022-08-06T03:06:51.640Z,18.58
2022-08-06T03:07:51.638Z,18.51
2022-08-06T03:08:51.644Z,18.50
2022-08-06T03:09:51.637Z,18.62
2022-08-06T03:10:51.641Z,18.50
2022-08-06T03:11:51.640Z,18.51
2022-08-06T03:12:51.644Z,18.45
2022-08-06T03:13:51.645Z,18.48
2022-08-06T03:15:07.270Z,18.50
2022-08-06T03:16:00.201Z,18.50
2022-08-06T03:16:51.649Z,18.54
2022-08-06T03:17:51.643Z,18.51
2022-08-06T03:19:54.677Z,18.45
2022-08-06T03:19:57.931Z,18.54
2022-08-06T03:20:51.654Z,18.41
2022-08-06T03:21:57.309Z,18.57
2022-08-06T03:22:52.190Z,18.42
2022-08-06T03:23:51.657Z,18.48
2022-08-06T03:24:51.658Z,18.52
2022-08-06T03:25:51.655Z,18.45
2022-08-06T03:26:51.661Z,18.42
2022-08-06T03:27:51.661Z,18.45
2022-08-06T03:28:51.666Z,18.36
2022-08-06T03:29:58.615Z,18.45
2022-08-06T03:30:55.335Z,18.41
2022-08-06T03:31:59.146Z,18.48
2022-08-06T03:32:52.870Z,18.41
2022-08-06T03:33:53.922Z,18.42
2022-08-06T03:34:52.350Z,18.42
2022-08-06T03:35:54.217Z,18.45
2022-08-06T03:36:51.676Z,18.42
2022-08-06T03:38:00.084Z,18.50
2022-08-06T03:38:54.545Z,18.45
2022-08-06T03:39:53.736Z,18.47
2022-08-06T03:40:52.064Z,18.50
2022-08-06T03:42:08.514Z,18.42
2022-08-06T03:42:53.266Z,18.47
2022-08-06T03:44:02.725Z,18.37
2022-08-06T03:44:51.683Z,18.42
2022-08-06T03:45:55.926Z,18.48
2022-08-06T03:46:51.686Z,18.39
2022-08-06T03:48:07.230Z,18.37
2022-08-06T03:48:51.691Z,18.52
2022-08-06T03:49:52.845Z,18.50
2022-08-06T03:50:51.695Z,18.42
2022-08-06T03:51:51.690Z,18.44
2022-08-06T03:52:51.697Z,18.36
2022-08-06T03:53:51.741Z,18.26
2022-08-06T03:54:51.696Z,18.27
2022-08-06T03:55:51.697Z,18.21
2022-08-06T03:56:51.700Z,18.25
2022-08-06T03:57:51.701Z,18.32
2022-08-06T03:58:51.726Z,18.33
2022-08-06T03:59:58.346Z,18.42
2022-08-06T04:00:51.808Z,18.44
2022-08-06T04:01:51.768Z,18.45
2022-08-06T04:02:52.015Z,18.45
2022-08-06T04:03:51.708Z,18.48
2022-08-06T04:04:51.710Z,18.45
2022-08-06T04:05:51.710Z,18.50
2022-08-06T04:06:52.025Z,18.39
2022-08-06T04:07:55.131Z,18.54
2022-08-06T04:08:51.715Z,18.47
2022-08-06T04:10:00.588Z,18.44
2022-08-06T04:10:57.268Z,18.48
2022-08-06T04:12:37.402Z,18.45
2022-08-06T04:13:07.341Z,18.51
2022-08-06T04:14:07.440Z,18.55
2022-08-06T04:14:51.727Z,18.48
2022-08-06T04:15:51.725Z,18.47
2022-08-06T04:16:51.725Z,18.47
2022-08-06T04:17:51.730Z,18.44
2022-08-06T04:18:51.727Z,18.44
2022-08-06T04:19:51.727Z,18.51
2022-08-06T04:20:53.020Z,18.48
2022-08-06T04:22:59.772Z,18.42
2022-08-06T04:23:05.904Z,18.50
2022-08-06T04:23:53.267Z,18.57
2022-08-06T04:24:51.733Z,18.57
2022-08-06T04:25:51.733Z,18.65
2022-08-06T04:26:51.734Z,18.51
2022-08-06T04:27:54.208Z,18.54
2022-08-06T04:28:57.116Z,18.65
2022-08-06T04:29:59.055Z,18.65
2022-08-06T04:30:51.742Z,18.62
2022-08-06T04:32:20.442Z,18.63
2022-08-06T04:33:00.842Z,18.63
2022-08-06T04:33:51.977Z,18.62
2022-08-06T04:36:06.771Z,18.63
2022-08-06T04:36:08.274Z,18.52
2022-08-06T04:36:54.179Z,18.57
2022-08-06T04:37:53.195Z,18.63
2022-08-06T04:38:52.111Z,18.69
2022-08-06T04:39:51.827Z,18.67
2022-08-06T04:40:53.214Z,18.78
2022-08-06T04:41:56.906Z,18.70
2022-08-06T04:42:51.765Z,18.67
2022-08-06T04:43:55.258Z,18.67
2022-08-06T04:44:59.409Z,18.70
2022-08-06T04:46:14.116Z,18.76
2022-08-06T04:46:51.767Z,18.72
2022-08-06T04:47:51.766Z,18.73
2022-08-06T04:48:56.709Z,18.85
2022-08-06T04:50:01.272Z,18.87
2022-08-06T04:50:54.686Z,18.84
2022-08-06T04:52:45.461Z,18.88
2022-08-06T04:52:52.460Z,18.92
2022-08-06T04:53:57.442Z,18.90
2022-08-06T04:54:51.774Z,18.82
2022-08-06T04:56:02.927Z,18.90
2022-08-06T04:56:51.773Z,18.87
2022-08-06T04:57:56.398Z,18.95
2022-08-06T04:58:51.774Z,18.95
2022-08-06T04:59:51.778Z,18.95
2022-08-06T05:01:00.725Z,18.98
2022-08-06T05:01:57.193Z,18.98
2022-08-06T05:02:51.782Z,19.07
2022-08-06T05:04:08.870Z,19.04
2022-08-06T05:04:51.787Z,18.99
2022-08-06T05:05:51.785Z,19.04
2022-08-06T05:06:51.788Z,19.10
2022-08-06T05:07:55.992Z,18.94
2022-08-06T05:08:52.048Z,19.02
2022-08-06T05:09:54.236Z,18.91
2022-08-06T05:10:51.821Z,19.14
2022-08-06T05:11:58.234Z,19.13
2022-08-06T05:12:51.796Z,19.06
2022-08-06T05:13:52.044Z,19.21
2022-08-06T05:14:51.799Z,19.18
2022-08-06T05:15:51.800Z,19.16
2022-08-06T05:16:53.717Z,19.11
2022-08-06T05:17:51.800Z,19.18
2022-08-06T05:19:51.804Z,19.07
2022-08-06T05:20:51.804Z,19.08
2022-08-06T05:22:10.890Z,18.95
2022-08-06T05:22:54.874Z,18.99
2022-08-06T05:23:53.296Z,18.95
2022-08-06T05:25:01.096Z,18.99
2022-08-06T05:25:54.636Z,18.99
2022-08-06T05:26:51.813Z,19.07
2022-08-06T05:28:03.359Z,19.10
2022-08-06T05:28:51.817Z,19.14
2022-08-06T05:29:54.734Z,19.21
2022-08-06T05:30:51.817Z,19.18
2022-08-06T05:31:51.820Z,19.28
2022-08-06T05:32:56.624Z,19.29
2022-08-06T05:33:51.826Z,19.28
2022-08-06T05:34:52.876Z,19.21
2022-08-06T05:36:01.373Z,19.21
2022-08-06T05:36:51.831Z,19.08
2022-08-06T05:38:01.611Z,18.98
2022-08-06T05:38:58.755Z,19.04
2022-08-06T05:39:58.779Z,19.04
2022-08-06T05:40:52.698Z,19.04
2022-08-06T05:41:51.837Z,19.07
2022-08-06T05:42:57.311Z,18.94
2022-08-06T05:44:00.347Z,18.99
2022-08-06T05:44:51.836Z,18.92
2022-08-06T05:45:51.838Z,18.94
2022-08-06T05:46:51.837Z,19.07
2022-08-06T05:47:56.118Z,19.08
2022-08-06T05:48:52.284Z,19.04
2022-08-06T05:49:55.209Z,19.02
2022-08-06T05:50:51.843Z,18.95
2022-08-06T05:51:51.846Z,19.06
2022-08-06T05:52:51.846Z,19.02
2022-08-06T05:54:03.907Z,18.98
2022-08-06T05:54:51.894Z,18.99
2022-08-06T05:55:51.856Z,19.10
2022-08-06T05:56:53.643Z,19.06
2022-08-06T05:57:53.859Z,19.19
2022-08-06T05:58:54.826Z,19.10
2022-08-06T05:59:57.703Z,19.18
2022-08-06T06:00:55.290Z,19.16
2022-08-06T06:01:51.860Z,19.21
2022-08-06T06:02:51.858Z,19.31
2022-08-06T06:03:51.944Z,19.29
2022-08-06T06:06:05.005Z,19.23
2022-08-06T06:06:07.296Z,19.26
2022-08-06T06:06:54.883Z,19.29
2022-08-06T06:08:09.568Z,19.25
2022-08-06T06:08:58.826Z,19.26
2022-08-06T06:10:03.053Z,19.36
2022-08-06T06:10:53.202Z,19.26
2022-08-06T06:12:01.499Z,19.29
2022-08-06T06:12:52.727Z,19.28
2022-08-06T06:13:58.567Z,19.39
2022-08-06T06:14:51.929Z,19.41
2022-08-06T06:16:00.081Z,19.51
2022-08-06T06:16:51.876Z,19.55
2022-08-06T06:17:51.878Z,19.68
2022-08-06T06:18:55.957Z,19.69
2022-08-06T06:19:53.248Z,19.66
2022-08-06T06:21:03.567Z,19.63
2022-08-06T06:21:51.882Z,19.68
2022-08-06T06:22:51.888Z,19.73
2022-08-06T06:23:54.613Z,19.83
2022-08-06T06:24:51.889Z,19.80
2022-08-06T06:25:53.514Z,19.92
2022-08-06T06:26:51.889Z,19.87
2022-08-06T06:27:51.896Z,19.95
2022-08-06T06:28:51.893Z,19.92
2022-08-06T06:30:06.083Z,19.95
2022-08-06T06:30:53.085Z,20.06
2022-08-06T06:32:06.406Z,20.08
2022-08-06T06:32:51.896Z,20.06
2022-08-06T06:33:52.055Z,20.18
2022-08-06T06:34:51.901Z,20.31
2022-08-06T06:35:55.336Z,20.28
2022-08-06T06:36:55.147Z,20.24
2022-08-06T06:37:52.133Z,20.32
2022-08-06T06:38:52.002Z,20.35
2022-08-06T06:39:51.969Z,20.50
2022-08-06T06:41:00.070Z,20.48
2022-08-06T06:41:53.413Z,20.54
2022-08-06T06:42:51.908Z,20.61
2022-08-06T06:43:53.952Z,20.70
2022-08-06T06:45:04.012Z,20.74
2022-08-06T06:46:05.387Z,20.82
2022-08-06T06:46:51.916Z,20.85
2022-08-06T06:47:53.144Z,20.85
2022-08-06T06:48:51.924Z,20.89
2022-08-06T06:50:00.883Z,20.92
2022-08-06T06:50:51.925Z,20.97
2022-08-06T06:51:57.477Z,21.01
2022-08-06T06:52:51.923Z,21.12
2022-08-06T06:54:07.247Z,21.09
2022-08-06T06:54:59.607Z,21.13
2022-08-06T06:55:58.018Z,21.21
2022-08-06T06:56:51.928Z,21.28
2022-08-06T06:57:52.018Z,21.43
2022-08-06T06:58:51.931Z,21.40
2022-08-06T07:00:01.336Z,21.37
2022-08-06T07:01:26.666Z,21.37
2022-08-06T07:01:54.925Z,21.42
2022-08-06T07:02:52.027Z,21.50
2022-08-06T07:03:51.940Z,21.46
2022-08-06T07:04:51.938Z,21.61
2022-08-06T07:06:04.637Z,21.54
2022-08-06T07:06:57.453Z,21.52
2022-08-06T07:07:51.946Z,21.58
2022-08-06T07:08:51.944Z,21.54
2022-08-06T07:09:53.583Z,21.67
2022-08-06T07:10:51.946Z,21.61
2022-08-06T07:12:03.170Z,21.71
2022-08-06T07:12:53.784Z,21.79
2022-08-06T07:13:51.959Z,21.86
2022-08-06T07:14:58.863Z,21.92
2022-08-06T07:15:54.125Z,21.96
2022-08-06T07:16:52.094Z,21.99
2022-08-06T07:17:59.010Z,21.99
2022-08-06T07:18:53.556Z,22.09
2022-08-06T07:19:51.970Z,22.09
2022-08-06T07:20:51.976Z,22.06
2022-08-06T07:21:52.544Z,22.24
2022-08-06T07:24:03.947Z,22.33
2022-08-06T07:24:08.187Z,22.46
2022-08-06T07:24:56.930Z,22.45
2022-08-06T07:25:54.530Z,22.60
2022-08-06T07:26:52.151Z,22.68
2022-08-06T07:27:55.534Z,22.94
2022-08-06T07:28:51.979Z,23.02
2022-08-06T07:30:00.175Z,23.10
2022-08-06T07:30:51.980Z,23.23
2022-08-06T07:31:53.664Z,23.33
2022-08-06T07:32:51.981Z,23.66
2022-08-06T07:34:00.910Z,23.76
2022-08-06T07:34:53.062Z,23.97
2022-08-06T07:35:51.985Z,24.46
2022-08-06T07:36:52.999Z,25.06
2022-08-06T07:37:51.985Z,25.65
2022-08-06T07:38:51.990Z,26.36
2022-08-06T07:39:52.035Z,26.91
2022-08-06T07:40:52.897Z,27.22
2022-08-06T07:42:10.644Z,27.85
2022-08-06T07:42:51.997Z,27.63
2022-08-06T07:43:51.996Z,27.62
2022-08-06T07:44:55.968Z,28.07
2022-08-06T07:45:55.594Z,28.33
2022-08-06T07:46:52.425Z,27.97
2022-08-06T07:47:54.880Z,28.68
2022-08-06T07:48:52.431Z,29.42
2022-08-06T07:50:00.165Z,30.22
2022-08-06T07:50:52.014Z,30.94
2022-08-06T07:51:52.016Z,31.50
2022-08-06T07:52:52.020Z,32.18
2022-08-06T07:53:56.785Z,32.50
2022-08-06T07:54:52.025Z,32.93
2022-08-06T07:55:52.635Z,33.57
2022-08-06T07:57:00.443Z,33.87
2022-08-06T07:57:55.308Z,34.54
2022-08-06T07:58:52.043Z,35.14
2022-08-06T07:59:55.419Z,35.55
2022-08-06T08:00:52.051Z,35.99
2022-08-06T08:01:52.097Z,36.34
2022-08-06T08:02:52.057Z,36.64
2022-08-06T08:03:57.904Z,36.80
2022-08-06T08:04:54.035Z,36.80
2022-08-06T08:06:00.559Z,36.68
2022-08-06T08:06:52.076Z,36.44
2022-08-06T08:07:53.475Z,36.41
2022-08-06T08:08:52.091Z,36.68
2022-08-06T08:10:02.706Z,36.76
2022-08-06T08:10:52.102Z,36.66
2022-08-06T08:12:33.882Z,36.94
2022-08-06T08:12:52.409Z,37.17
2022-08-06T08:13:56.769Z,37.46
2022-08-06T08:14:52.129Z,37.60
2022-08-06T08:15:52.134Z,37.67
2022-08-06T08:16:52.157Z,38.01
2022-08-06T08:17:57.247Z,37.03
2022-08-06T08:18:52.226Z,35.82
2022-08-06T08:19:52.171Z,34.99
2022-08-06T08:20:53.902Z,35.06
2022-08-06T08:21:52.220Z,34.84
2022-08-06T08:22:52.197Z,35.40
2022-08-06T08:23:55.402Z,35.97
2022-08-06T08:24:54.686Z,36.80
2022-08-06T08:25:52.224Z,37.32
2022-08-06T08:27:16.906Z,37.94
2022-08-06T08:27:52.241Z,38.06
2022-08-06T08:28:52.257Z,37.59
2022-08-06T08:29:56.805Z,37.18
2022-08-06T08:30:52.281Z,37.86
2022-08-06T08:31:59.356Z,38.11
2022-08-06T08:32:52.298Z,37.00
2022-08-06T08:33:52.305Z,36.15
2022-08-06T08:34:53.449Z,34.97
2022-08-06T08:36:01.112Z,34.21
2022-08-06T08:36:52.338Z,33.91
2022-08-06T08:37:52.347Z,34.81
2022-08-06T08:38:52.361Z,35.59
2022-08-06T08:39:53.659Z,36.37
2022-08-06T08:40:52.390Z,37.27
2022-08-06T08:41:52.391Z,38.13
2022-08-06T08:42:55.017Z,38.79
2022-08-06T08:44:00.961Z,39.23
2022-08-06T08:44:53.800Z,39.26
2022-08-06T08:45:52.443Z,38.23
2022-08-06T08:46:57.955Z,37.31
2022-08-06T08:47:53.873Z,38.01
2022-08-06T08:48:52.481Z,38.72
2022-08-06T08:49:52.497Z,39.30
2022-08-06T08:50:52.504Z,40.01
2022-08-06T08:51:52.515Z,40.15
2022-08-06T08:52:52.538Z,40.38
2022-08-06T08:53:52.541Z,40.61
2022-08-06T08:54:52.563Z,40.73
2022-08-06T08:57:07.017Z,40.87
2022-08-06T08:57:07.939Z,41.07
2022-08-06T08:58:41.735Z,40.51
2022-08-06T08:59:02.743Z,39.50
2022-08-06T08:59:57.645Z,38.34
2022-08-06T09:00:54.682Z,37.46
2022-08-06T09:01:57.491Z,36.43
2022-08-06T09:02:52.846Z,35.59
2022-08-06T09:03:52.694Z,34.82
2022-08-06T09:04:52.703Z,34.00
2022-08-06T09:05:53.476Z,33.38
2022-08-06T09:06:52.732Z,33.21
2022-08-06T09:08:01.391Z,32.85
2022-08-06T09:09:01.589Z,32.32
2022-08-06T09:10:01.402Z,31.95
2022-08-06T09:10:52.783Z,32.84
2022-08-06T09:12:04.509Z,33.69
2022-08-06T09:12:52.819Z,34.50
2022-08-06T09:13:52.819Z,35.28
2022-08-06T09:14:52.837Z,36.17
2022-08-06T09:15:52.860Z,36.91
2022-08-06T09:16:52.879Z,37.57
2022-08-06T09:18:11.931Z,38.18
2022-08-06T09:18:52.898Z,38.49
2022-08-06T09:19:52.910Z,38.98
2022-08-06T09:20:52.929Z,39.28
2022-08-06T09:21:52.945Z,39.69
2022-08-06T09:22:52.955Z,39.89
2022-08-06T09:23:57.936Z,39.84
2022-08-06T09:24:52.987Z,39.86
2022-08-06T09:25:53.001Z,39.97
2022-08-06T09:26:54.118Z,39.98
2022-08-06T09:27:53.039Z,40.00
2022-08-06T09:28:53.056Z,40.15
2022-08-06T09:30:04.537Z,40.48
2022-08-06T09:30:53.091Z,40.39
2022-08-06T09:31:54.423Z,40.60
2022-08-06T09:32:55.352Z,40.55
2022-08-06T09:34:31.275Z,39.44
2022-08-06T09:34:53.161Z,38.25
2022-08-06T09:35:53.179Z,37.15
2022-08-06T09:36:54.495Z,36.19
2022-08-06T09:37:55.963Z,35.52
2022-08-06T09:38:53.232Z,35.03
2022-08-06T09:40:05.219Z,35.23
2022-08-06T09:40:53.269Z,35.44
2022-08-06T10:56:54.327Z,38.57
2022-08-06T10:57:54.342Z,38.71
2022-08-06T10:58:54.364Z,39.03
2022-08-06T10:59:54.387Z,39.48
2022-08-06T11:00:56.344Z,39.55
2022-08-06T11:01:54.859Z,39.60
2022-08-06T11:02:57.096Z,39.63
2022-08-06T11:03:56.102Z,39.60
2022-08-06T11:04:54.674Z,39.33
2022-08-06T11:05:54.703Z,38.54
2022-08-06T11:06:54.533Z,37.93
2022-08-06T11:08:08.559Z,37.21
2022-08-06T11:08:58.881Z,36.56
2022-08-06T11:10:01.879Z,36.43
2022-08-06T11:10:54.614Z,36.57
2022-08-06T11:12:05.455Z,36.90
2022-08-06T11:12:54.659Z,37.27
2022-08-06T11:13:54.683Z,37.43
2022-08-06T11:14:54.694Z,37.55
2022-08-06T11:15:54.715Z,37.50
2022-08-06T11:16:54.741Z,38.04
2022-08-06T11:17:54.755Z,38.04
2022-08-06T11:18:54.777Z,38.15
2022-08-06T11:19:56.486Z,38.00
2022-08-06T11:20:54.821Z,38.07
2022-08-06T11:21:59.145Z,38.28
2022-08-06T11:22:59.758Z,37.88
2022-08-06T11:24:00.949Z,37.29
2022-08-06T11:24:54.900Z,36.83
2022-08-06T11:25:54.918Z,36.43
2022-08-06T11:26:56.647Z,35.85
2022-08-06T11:27:55.184Z,35.11
2022-08-06T11:28:54.984Z,34.84
2022-08-06T11:30:03.493Z,34.47
2022-08-06T11:30:55.022Z,34.35
2022-08-06T11:31:57.505Z,34.89
2022-08-06T11:32:55.057Z,35.56
2022-08-06T11:33:55.076Z,35.97
2022-08-06T11:34:55.091Z,36.47
2022-08-06T11:35:55.108Z,36.84
2022-08-06T11:36:57.723Z,36.53
2022-08-06T11:38:02.755Z,36.31
2022-08-06T11:38:59.301Z,36.22
2022-08-06T11:39:55.259Z,36.15
2022-08-06T11:40:55.211Z,36.12
2022-08-06T11:41:57.701Z,36.19
2022-08-06T11:42:55.235Z,36.16
2022-08-06T11:44:03.341Z,36.41
2022-08-06T11:45:05.064Z,36.57
2022-08-06T11:46:20.019Z,36.64
2022-08-06T11:46:55.307Z,36.73
2022-08-06T11:47:55.321Z,36.87
2022-08-06T11:48:55.342Z,36.85
2022-08-06T11:49:57.675Z,36.85
2022-08-06T11:50:55.374Z,36.85
2022-08-06T11:52:03.915Z,36.98
2022-08-06T11:52:56.119Z,37.15
2022-08-06T11:53:55.418Z,37.47
2022-08-06T11:54:55.437Z,37.63
2022-08-06T11:55:55.454Z,37.66
2022-08-06T11:56:55.466Z,37.85
2022-08-06T11:57:55.892Z,38.00
2022-08-06T11:58:55.498Z,38.04
2022-08-06T11:59:55.514Z,37.98
2022-08-06T12:00:55.532Z,37.76
2022-08-06T12:01:55.565Z,37.46
2022-08-06T12:02:56.699Z,37.56
2022-08-06T12:03:55.571Z,37.70
2022-08-06T12:04:55.599Z,37.64
2022-08-06T12:05:57.360Z,37.82
2022-08-06T12:06:55.610Z,37.67
2022-08-06T12:07:55.630Z,37.21
2022-08-06T12:08:55.646Z,36.54
2022-08-06T12:09:55.656Z,36.22
2022-08-06T12:10:55.678Z,35.94
2022-08-06T12:11:55.816Z,35.68
2022-08-06T12:12:55.705Z,35.44
2022-08-06T12:14:31.801Z,35.16
2022-08-06T12:14:55.732Z,34.89
2022-08-06T12:16:00.083Z,34.32
2022-08-06T12:16:58.620Z,34.00
2022-08-06T12:18:20.385Z,33.71
2022-08-06T12:18:55.783Z,33.75
2022-08-06T12:20:00.986Z,34.44
2022-08-06T12:20:55.814Z,34.94
2022-08-06T12:21:56.982Z,35.37
2022-08-06T12:22:55.840Z,36.05
2022-08-06T12:23:57.175Z,36.35
2022-08-06T12:25:10.840Z,36.88
2022-08-06T12:25:55.875Z,37.10
2022-08-06T12:26:55.887Z,37.02
2022-08-06T12:27:55.908Z,36.94
2022-08-06T12:28:55.915Z,37.03
2022-08-06T12:29:55.927Z,37.34
2022-08-06T12:30:55.951Z,37.21
2022-08-06T12:31:55.960Z,37.07
2022-08-06T12:32:57.767Z,37.20
2022-08-06T12:33:56.050Z,37.34
2022-08-06T12:34:58.604Z,37.70
2022-08-06T12:35:56.471Z,37.79
2022-08-06T12:36:56.772Z,38.09
2022-08-06T12:37:56.030Z,38.26
2022-08-06T12:38:56.165Z,38.12
2022-08-06T12:39:56.088Z,37.34
2022-08-06T12:40:56.261Z,36.84
2022-08-06T12:41:56.073Z,36.80
2022-08-06T12:42:56.098Z,36.01
2022-08-06T12:43:57.540Z,35.38
2022-08-06T12:44:58.957Z,34.92
2022-08-06T12:46:06.977Z,34.34
2022-08-06T12:46:56.135Z,34.00
2022-08-06T12:48:02.547Z,33.90
2022-08-06T12:48:56.160Z,33.69
2022-08-06T12:49:56.174Z,33.59
2022-08-06T12:50:56.187Z,33.39
2022-08-06T12:51:56.196Z,33.19
2022-08-06T12:52:56.208Z,33.06
2022-08-06T12:53:56.220Z,33.28
2022-08-06T12:54:56.229Z,33.34
2022-08-06T12:55:56.951Z,33.41
2022-08-06T12:56:56.262Z,32.97
2022-08-06T12:57:59.967Z,32.66
2022-08-06T12:58:56.275Z,32.25
2022-08-06T12:59:56.291Z,32.01
2022-08-06T13:00:56.357Z,31.73
2022-08-06T13:02:07.853Z,31.66
2022-08-06T13:02:56.356Z,31.54
2022-08-06T13:04:01.533Z,31.36
2022-08-06T13:04:56.347Z,31.20
2022-08-06T13:05:59.897Z,31.10
2022-08-06T13:06:56.365Z,31.02
2022-08-06T13:07:56.374Z,30.92
2022-08-06T13:08:56.388Z,30.83
2022-08-06T13:10:32.845Z,30.69
2022-08-06T13:10:56.411Z,30.57
2022-08-06T13:11:56.421Z,30.49
2022-08-06T13:14:15.429Z,30.37
2022-08-06T13:14:15.707Z,30.35
2022-08-06T13:15:01.109Z,30.27
2022-08-06T13:15:56.462Z,30.29
2022-08-06T13:16:57.309Z,30.20
2022-08-06T13:17:59.784Z,30.10
2022-08-06T13:18:56.485Z,29.94
2022-08-06T13:19:56.498Z,29.85
2022-08-06T13:20:56.785Z,29.89
2022-08-06T13:21:58.175Z,29.76
2022-08-06T13:22:56.528Z,29.67
2022-08-06T13:23:56.535Z,29.61
2022-08-06T13:25:03.552Z,29.57
2022-08-06T13:26:10.561Z,29.51
2022-08-06T13:26:56.564Z,29.27
2022-08-06T13:27:56.570Z,29.28
2022-08-06T13:30:33.725Z,29.28
2022-08-06T13:30:34.194Z,29.30
2022-08-06T13:30:57.408Z,29.30
2022-08-06T13:31:58.540Z,29.30
2022-08-06T13:32:58.347Z,29.31
2022-08-06T13:34:04.723Z,29.51
2022-08-06T13:34:56.638Z,29.65
2022-08-06T13:35:56.647Z,29.76
2022-08-06T13:36:56.754Z,29.83
2022-08-06T13:38:15.197Z,29.76
2022-08-06T13:38:56.693Z,29.86
2022-08-06T13:39:56.682Z,29.79
2022-08-06T13:41:03.270Z,29.67
2022-08-06T13:42:01.810Z,29.78
2022-08-06T13:42:56.710Z,29.70
2022-08-06T13:43:57.885Z,29.70
2022-08-06T13:44:56.731Z,29.63
2022-08-06T13:46:00.086Z,29.64
2022-08-06T13:46:56.740Z,29.55
2022-08-06T13:48:00.344Z,29.55
2022-08-06T13:48:58.503Z,29.51
2022-08-06T13:50:03.884Z,29.45
2022-08-06T13:50:56.776Z,29.52
2022-08-06T13:51:56.784Z,29.55
2022-08-06T13:53:01.769Z,29.57
2022-08-06T13:53:56.973Z,29.80
2022-08-06T13:54:56.809Z,29.90
2022-08-06T13:56:02.627Z,30.13
2022-08-06T13:56:56.824Z,30.15
2022-08-06T13:57:56.837Z,30.07
2022-08-06T13:58:56.947Z,30.20
2022-08-06T13:59:56.848Z,30.29
2022-08-06T14:00:56.859Z,30.27
2022-08-06T14:01:56.866Z,30.34
2022-08-06T14:02:56.934Z,30.29
2022-08-06T14:03:56.911Z,30.37
2022-08-06T14:04:56.889Z,30.22
2022-08-06T14:05:57.192Z,30.15
2022-08-06T14:06:59.402Z,30.08
2022-08-06T14:07:56.915Z,30.08